Meteo Giornale » Osservazioni meteo Stati Uniti (USA) » Fort Wayne
ore: 00:54 - Osservazioni Meteo Fort Wayne
Lat. 40° 58' N Lon. 85° 11' W Alt. 248 metri s.l.m.
24 °C
Molto Nuvoloso
Temp. 24 Ore
21 °C
31 °C
Sud-Ovest
11.1 Km/h
Dew point 22 °C
Umidità 88 %
Visibilità 10 Km
Il sole sorge alle ore 07:07
Il sole tramonta alle ore 20:13
| Data e Ora | Cielo e Fenomeni | T °C | DP °C | Um. % | Pres. hPa | Vis. km | Vento km/h | |
|---|---|---|---|---|---|---|---|---|
| Oggi h: 00:54 | Molto Nuvoloso | 24 | 22 | 88 | 1016 | 10 | SO 11.1 | |
| Ieri h: 23:54 | Coperto | 24 | 22 | 88 | 1016 | 10 | S/SO 14.8 | |
| Ieri h: 22:54 | Pioggia | 25 | 22 | 83 | 1016 | 10 | S/SO 18.5 | |
| Ieri h: 22:29 | Coperto | 24 | 22 | 88 | 1016 | 10 | S/SO 14.8 | |
| Ieri h: 21:54 | Temporale | 25 | 22 | 83 | 1016 | 10 | S/SO 14.8 | |
| Ieri h: 20:54 | Coperto | 26 | 22 | 78 | 1016 | 10 | S 11.1 | |
| Ieri h: 19:54 | Molto Nuvoloso | 27 | 23 | 78 | 1016 | 10 | S 7.4 | |
| Ieri h: 18:54 | Molto Nuvoloso | 28 | 22 | 69 | 1016 | 10 | SO 9.3 | |
| Ieri h: 17:54 | Molto Nuvoloso | 31 | 23 | 62 | 1016 | 10 | SO 13 | |
| Ieri h: 16:54 | Molto Nuvoloso | 29 | 24 | 74 | 1016 | 10 | S/SO 11.1 | |
| Ieri h: 15:54 | Molto Nuvoloso | 28 | 23 | 74 | 1017 | 10 | S/SO 11.1 | |
| Ieri h: 14:54 | Molto Nuvoloso | 26 | 23 | 83 | 1017 | 10 | S/SO 9.3 | |
| Ieri h: 13:54 | Molto Nuvoloso | 26 | 22 | 78 | 1018 | 10 | O/SO 11.1 | |
| Ieri h: 12:54 | Pioggia | 24 | 23 | 94 | 1019 | 10 | S/SO 9.3 | |
| Ieri h: 11:54 | Molto Nuvoloso | 25 | 21 | 78 | 1019 | 10 | N 5.5 | |
| Ieri h: 10:54 | Coperto | 26 | 21 | 73 | 1019 | 10 | SO 16.7 | |
| Ieri h: 09:54 | Molto Nuvoloso | 25 | 21 | 78 | 1018 | 10 | SO 11.1 | |
| Ieri h: 08:54 | Molto Nuvoloso | 24 | 21 | 83 | 1018 | 10 | S/SO 14.8 | |
| Ieri h: 07:54 | Molto Nuvoloso | 21 | 19 | 88 | 1018 | 10 | N 5.5 | |
| Ieri h: 06:54 | Nuvoloso | 21 | 19 | 88 | 1017 | 10 | SO 11.1 | |
| Ieri h: 05:54 | Nuvoloso | 21 | 19 | 88 | 1017 | 10 | S/SO 9.3 | |
| Ieri h: 04:54 | Molto Nuvoloso | 21 | 20 | 94 | 1017 | 10 | N 5.5 | |
| Ieri h: 03:54 | Coperto | 22 | 20 | 88 | 1017 | 10 | S/SE 9.3 | |
| Ieri h: 02:54 | Coperto | 22 | 21 | 94 | 1018 | 10 | N 5.5 | |
| Ieri h: 01:54 | Coperto | 22 | 21 | 94 | 1018 | 10 | N 5.5 | |



